sensor_id;sensor_type;location;lat;lon;timestamp;temperature;humidity
49765;DHT22;35657;51.204;-4.130;2023-07-20T00:00:07;17.70;99.90
49765;DHT22;35657;51.204;-4.130;2023-07-20T00:02:32;17.80;99.90
49765;DHT22;35657;51.204;-4.130;2023-07-20T00:04:58;17.90;99.90
49765;DHT22;35657;51.204;-4.130;2023-07-20T00:07:25;17.80;99.90
49765;DHT22;35657;51.204;-4.130;2023-07-20T00:09:50;17.90;99.90
49765;DHT22;35657;51.204;-4.130;2023-07-20T00:12:16;17.90;99.90
49765;DHT22;35657;51.204;-4.130;2023-07-20T00:14:42;17.80;99.90
49765;DHT22;35657;51.204;-4.130;2023-07-20T00:17:07;17.70;99.90
49765;DHT22;35657;51.204;-4.130;2023-07-20T00:19:33;17.60;99.90
49765;DHT22;35657;51.204;-4.130;2023-07-20T00:22:00;17.60;99.90
49765;DHT22;35657;51.204;-4.130;2023-07-20T00:24:27;17.60;99.90
49765;DHT22;35657;51.204;-4.130;2023-07-20T00:26:52;17.60;99.90
49765;DHT22;35657;51.204;-4.130;2023-07-20T00:29:18;17.50;99.90
49765;DHT22;35657;51.204;-4.130;2023-07-20T00:31:44;17.60;99.90
49765;DHT22;35657;51.204;-4.130;2023-07-20T00:34:09;17.50;99.90
49765;DHT22;35657;51.204;-4.130;2023-07-20T00:36:35;17.50;99.90
49765;DHT22;35657;51.204;-4.130;2023-07-20T00:39:01;17.50;99.90
49765;DHT22;35657;51.204;-4.130;2023-07-20T00:41:27;17.60;99.90
49765;DHT22;35657;51.204;-4.130;2023-07-20T00:43:55;17.60;99.90
49765;DHT22;35657;51.204;-4.130;2023-07-20T00:46:23;17.60;99.90
49765;DHT22;35657;51.204;-4.130;2023-07-20T00:48:50;17.60;99.90
49765;DHT22;35657;51.204;-4.130;2023-07-20T00:51:16;17.60;99.90
49765;DHT22;35657;51.204;-4.130;2023-07-20T00:53:42;17.50;99.90
49765;DHT22;35657;51.204;-4.130;2023-07-20T00:56:08;17.40;99.90
49765;DHT22;35657;51.204;-4.130;2023-07-20T00:58:35;17.40;99.90
49765;DHT22;35657;51.204;-4.130;2023-07-20T01:01:01;17.30;99.90
49765;DHT22;35657;51.204;-4.130;2023-07-20T01:03:26;17.30;99.90
49765;DHT22;35657;51.204;-4.130;2023-07-20T01:09:00;17.20;99.90
49765;DHT22;35657;51.204;-4.130;2023-07-20T01:14:05;17.10;99.90
49765;DHT22;35657;51.204;-4.130;2023-07-20T01:16:31;17.10;99.90
49765;DHT22;35657;51.204;-4.130;2023-07-20T01:18:56;17.00;99.90
49765;DHT22;35657;51.204;-4.130;2023-07-20T01:21:28;17.00;99.90
49765;DHT22;35657;51.204;-4.130;2023-07-20T01:31:52;16.90;99.90
49765;DHT22;35657;51.204;-4.130;2023-07-20T01:34:19;16.80;99.90
49765;DHT22;35657;51.204;-4.130;2023-07-20T01:36:50;16.80;99.90
49765;DHT22;35657;51.204;-4.130;2023-07-20T01:39:19;16.80;99.90
49765;DHT22;35657;51.204;-4.130;2023-07-20T01:41:45;16.80;99.90
49765;DHT22;35657;51.204;-4.130;2023-07-20T01:44:12;16.70;99.90
49765;DHT22;35657;51.204;-4.130;2023-07-20T01:46:38;16.70;99.90
49765;DHT22;35657;51.204;-4.130;2023-07-20T01:49:04;16.80;99.90
49765;DHT22;35657;51.204;-4.130;2023-07-20T01:51:29;16.90;99.90
49765;DHT22;35657;51.204;-4.130;2023-07-20T01:53:55;16.90;99.90
49765;DHT22;35657;51.204;-4.130;2023-07-20T01:56:21;17.00;99.90
49765;DHT22;35657;51.204;-4.130;2023-07-20T01:58:46;17.00;99.90
49765;DHT22;35657;51.204;-4.130;2023-07-20T02:01:12;17.00;99.90
49765;DHT22;35657;51.204;-4.130;2023-07-20T02:03:38;17.00;99.90
49765;DHT22;35657;51.204;-4.130;2023-07-20T02:06:03;17.10;99.90
49765;DHT22;35657;51.204;-4.130;2023-07-20T02:08:29;17.10;99.90
49765;DHT22;35657;51.204;-4.130;2023-07-20T02:10:55;17.00;99.90
49765;DHT22;35657;51.204;-4.130;2023-07-20T02:13:20;17.00;99.90
49765;DHT22;35657;51.204;-4.130;2023-07-20T02:15:46;17.00;99.90
49765;DHT22;35657;51.204;-4.130;2023-07-20T02:18:16;17.00;99.90
49765;DHT22;35657;51.204;-4.130;2023-07-20T02:20:42;17.00;99.90
49765;DHT22;35657;51.204;-4.130;2023-07-20T02:23:08;17.00;99.90
49765;DHT22;35657;51.204;-4.130;2023-07-20T02:25:33;17.00;99.90
49765;DHT22;35657;51.204;-4.130;2023-07-20T02:27:59;17.00;99.90
49765;DHT22;35657;51.204;-4.130;2023-07-20T02:30:25;16.90;99.90
49765;DHT22;35657;51.204;-4.130;2023-07-20T02:32:50;16.70;99.90
49765;DHT22;35657;51.204;-4.130;2023-07-20T02:35:16;16.60;99.90
49765;DHT22;35657;51.204;-4.130;2023-07-20T02:37:42;16.50;99.90
49765;DHT22;35657;51.204;-4.130;2023-07-20T02:40:08;16.50;99.90
49765;DHT22;35657;51.204;-4.130;2023-07-20T02:42:35;16.40;99.90
49765;DHT22;35657;51.204;-4.130;2023-07-20T02:45:04;16.40;99.90
49765;DHT22;35657;51.204;-4.130;2023-07-20T02:47:30;16.40;99.90
49765;DHT22;35657;51.204;-4.130;2023-07-20T02:49:57;16.30;99.90
49765;DHT22;35657;51.204;-4.130;2023-07-20T02:52:22;16.30;99.90
49765;DHT22;35657;51.204;-4.130;2023-07-20T02:54:48;16.30;99.90
49765;DHT22;35657;51.204;-4.130;2023-07-20T02:57:14;16.30;99.90
49765;DHT22;35657;51.204;-4.130;2023-07-20T02:59:40;16.40;99.90
49765;DHT22;35657;51.204;-4.130;2023-07-20T03:02:05;16.50;99.90
49765;DHT22;35657;51.204;-4.130;2023-07-20T03:04:35;16.50;99.90
49765;DHT22;35657;51.204;-4.130;2023-07-20T03:07:04;16.50;99.90
49765;DHT22;35657;51.204;-4.130;2023-07-20T03:09:30;16.50;99.90
49765;DHT22;35657;51.204;-4.130;2023-07-20T03:11:55;16.40;99.90
49765;DHT22;35657;51.204;-4.130;2023-07-20T03:14:21;16.20;99.90
49765;DHT22;35657;51.204;-4.130;2023-07-20T03:16:48;16.20;99.90
49765;DHT22;35657;51.204;-4.130;2023-07-20T03:19:14;16.10;99.90
49765;DHT22;35657;51.204;-4.130;2023-07-20T03:21:40;16.10;99.90
49765;DHT22;35657;51.204;-4.130;2023-07-20T03:24:07;16.10;99.90
49765;DHT22;35657;51.204;-4.130;2023-07-20T03:26:34;16.10;99.90
49765;DHT22;35657;51.204;-4.130;2023-07-20T03:29:00;16.00;99.90
49765;DHT22;35657;51.204;-4.130;2023-07-20T03:31:26;16.00;99.90
49765;DHT22;35657;51.204;-4.130;2023-07-20T03:33:52;16.00;99.90
49765;DHT22;35657;51.204;-4.130;2023-07-20T03:36:18;16.00;99.90
49765;DHT22;35657;51.204;-4.130;2023-07-20T03:38:43;16.20;99.90
49765;DHT22;35657;51.204;-4.130;2023-07-20T03:41:09;16.20;99.90
49765;DHT22;35657;51.204;-4.130;2023-07-20T03:43:37;16.20;99.90
49765;DHT22;35657;51.204;-4.130;2023-07-20T03:46:03;16.20;99.90
49765;DHT22;35657;51.204;-4.130;2023-07-20T03:48:33;16.20;99.90
49765;DHT22;35657;51.204;-4.130;2023-07-20T03:50:58;16.20;99.90
49765;DHT22;35657;51.204;-4.130;2023-07-20T03:53:25;16.00;99.90
49765;DHT22;35657;51.204;-4.130;2023-07-20T03:55:52;15.90;99.90
49765;DHT22;35657;51.204;-4.130;2023-07-20T03:58:19;15.90;99.90
49765;DHT22;35657;51.204;-4.130;2023-07-20T04:00:50;15.90;99.90
49765;DHT22;35657;51.204;-4.130;2023-07-20T04:03:16;15.80;99.90
49765;DHT22;35657;51.204;-4.130;2023-07-20T04:05:43;15.80;99.90
49765;DHT22;35657;51.204;-4.130;2023-07-20T04:08:10;15.80;99.90
49765;DHT22;35657;51.204;-4.130;2023-07-20T04:10:37;15.80;99.90
49765;DHT22;35657;51.204;-4.130;2023-07-20T04:13:03;15.70;99.90
49765;DHT22;35657;51.204;-4.130;2023-07-20T04:15:29;15.80;99.90
49765;DHT22;35657;51.204;-4.130;2023-07-20T04:17:55;15.80;99.90
49765;DHT22;35657;51.204;-4.130;2023-07-20T04:20:22;15.80;99.90
49765;DHT22;35657;51.204;-4.130;2023-07-20T04:22:48;15.80;99.90
49765;DHT22;35657;51.204;-4.130;2023-07-20T04:25:14;15.90;99.90
49765;DHT22;35657;51.204;-4.130;2023-07-20T04:27:39;15.90;99.90
49765;DHT22;35657;51.204;-4.130;2023-07-20T04:30:07;15.90;99.90
49765;DHT22;35657;51.204;-4.130;2023-07-20T04:32:33;15.80;99.90
49765;DHT22;35657;51.204;-4.130;2023-07-20T04:34:59;15.80;99.90
49765;DHT22;35657;51.204;-4.130;2023-07-20T04:37:25;15.70;99.90
49765;DHT22;35657;51.204;-4.130;2023-07-20T04:39:51;15.70;99.90
49765;DHT22;35657;51.204;-4.130;2023-07-20T04:42:16;15.70;99.90
49765;DHT22;35657;51.204;-4.130;2023-07-20T04:44:42;15.60;99.90
49765;DHT22;35657;51.204;-4.130;2023-07-20T04:47:08;15.60;99.90
49765;DHT22;35657;51.204;-4.130;2023-07-20T04:49:36;15.50;99.90
49765;DHT22;35657;51.204;-4.130;2023-07-20T04:52:02;15.40;99.90
49765;DHT22;35657;51.204;-4.130;2023-07-20T04:54:28;15.40;99.90
49765;DHT22;35657;51.204;-4.130;2023-07-20T04:56:54;15.50;99.90
49765;DHT22;35657;51.204;-4.130;2023-07-20T04:59:19;15.50;99.90
49765;DHT22;35657;51.204;-4.130;2023-07-20T05:01:45;15.50;99.90
49765;DHT22;35657;51.204;-4.130;2023-07-20T05:04:11;15.70;99.90
49765;DHT22;35657;51.204;-4.130;2023-07-20T05:06:37;15.70;99.90
49765;DHT22;35657;51.204;-4.130;2023-07-20T05:09:04;15.70;99.90
49765;DHT22;35657;51.204;-4.130;2023-07-20T05:11:33;15.50;99.90
49765;DHT22;35657;51.204;-4.130;2023-07-20T05:13:59;15.50;99.90
49765;DHT22;35657;51.204;-4.130;2023-07-20T05:16:25;15.50;99.90
49765;DHT22;35657;51.204;-4.130;2023-07-20T05:18:51;15.50;99.90
49765;DHT22;35657;51.204;-4.130;2023-07-20T05:21:17;15.50;99.90
49765;DHT22;35657;51.204;-4.130;2023-07-20T05:23:42;15.50;99.90
49765;DHT22;35657;51.204;-4.130;2023-07-20T05:26:08;15.60;99.90
49765;DHT22;35657;51.204;-4.130;2023-07-20T05:28:34;15.60;99.90
49765;DHT22;35657;51.204;-4.130;2023-07-20T05:31:03;15.60;99.90
49765;DHT22;35657;51.204;-4.130;2023-07-20T05:33:28;15.50;99.90
49765;DHT22;35657;51.204;-4.130;2023-07-20T05:35:54;15.50;99.90
49765;DHT22;35657;51.204;-4.130;2023-07-20T05:38:20;15.60;99.90
49765;DHT22;35657;51.204;-4.130;2023-07-20T05:40:45;15.70;99.90
49765;DHT22;35657;51.204;-4.130;2023-07-20T05:43:12;15.80;99.90
49765;DHT22;35657;51.204;-4.130;2023-07-20T05:45:42;15.90;99.90
49765;DHT22;35657;51.204;-4.130;2023-07-20T05:48:08;16.00;99.90
49765;DHT22;35657;51.204;-4.130;2023-07-20T05:50:43;16.00;99.90
49765;DHT22;35657;51.204;-4.130;2023-07-20T05:53:09;16.00;99.90
49765;DHT22;35657;51.204;-4.130;2023-07-20T05:55:34;16.00;99.90
49765;DHT22;35657;51.204;-4.130;2023-07-20T05:58:00;16.00;99.90
49765;DHT22;35657;51.204;-4.130;2023-07-20T06:00:26;16.00;99.90
49765;DHT22;35657;51.204;-4.130;2023-07-20T06:02:53;16.00;99.90
49765;DHT22;35657;51.204;-4.130;2023-07-20T06:05:21;16.00;99.90
49765;DHT22;35657;51.204;-4.130;2023-07-20T06:07:47;16.00;99.90
49765;DHT22;35657;51.204;-4.130;2023-07-20T06:10:12;16.00;99.90
49765;DHT22;35657;51.204;-4.130;2023-07-20T06:12:38;16.00;99.90
49765;DHT22;35657;51.204;-4.130;2023-07-20T06:15:05;16.00;99.90
49765;DHT22;35657;51.204;-4.130;2023-07-20T06:17:31;16.00;99.90
49765;DHT22;35657;51.204;-4.130;2023-07-20T06:19:57;15.90;99.90
49765;DHT22;35657;51.204;-4.130;2023-07-20T06:22:23;15.90;99.90
49765;DHT22;35657;51.204;-4.130;2023-07-20T06:24:48;16.00;99.90
49765;DHT22;35657;51.204;-4.130;2023-07-20T06:27:14;16.00;99.90
49765;DHT22;35657;51.204;-4.130;2023-07-20T06:29:40;16.00;99.90
49765;DHT22;35657;51.204;-4.130;2023-07-20T06:32:06;16.00;99.90
49765;DHT22;35657;51.204;-4.130;2023-07-20T06:34:32;16.00;99.90
49765;DHT22;35657;51.204;-4.130;2023-07-20T06:37:02;16.00;99.90
49765;DHT22;35657;51.204;-4.130;2023-07-20T06:39:29;16.00;99.90
49765;DHT22;35657;51.204;-4.130;2023-07-20T06:41:55;16.10;99.90
49765;DHT22;35657;51.204;-4.130;2023-07-20T06:44:20;16.00;99.90
49765;DHT22;35657;51.204;-4.130;2023-07-20T06:46:46;16.10;99.90
49765;DHT22;35657;51.204;-4.130;2023-07-20T06:49:27;16.10;99.90
49765;DHT22;35657;51.204;-4.130;2023-07-20T06:51:53;16.10;99.90
49765;DHT22;35657;51.204;-4.130;2023-07-20T06:54:18;16.10;99.90
49765;DHT22;35657;51.204;-4.130;2023-07-20T06:56:44;16.10;99.90
49765;DHT22;35657;51.204;-4.130;2023-07-20T06:59:10;16.10;99.90
49765;DHT22;35657;51.204;-4.130;2023-07-20T07:01:35;16.20;99.90
49765;DHT22;35657;51.204;-4.130;2023-07-20T07:04:01;16.20;99.90
49765;DHT22;35657;51.204;-4.130;2023-07-20T07:06:27;16.20;99.90
49765;DHT22;35657;51.204;-4.130;2023-07-20T07:08:53;16.20;99.90
49765;DHT22;35657;51.204;-4.130;2023-07-20T07:11:20;16.30;99.90
49765;DHT22;35657;51.204;-4.130;2023-07-20T07:13:45;16.30;99.90
49765;DHT22;35657;51.204;-4.130;2023-07-20T07:16:12;16.30;99.90
49765;DHT22;35657;51.204;-4.130;2023-07-20T07:18:40;16.30;99.90
49765;DHT22;35657;51.204;-4.130;2023-07-20T07:21:05;16.30;99.90
49765;DHT22;35657;51.204;-4.130;2023-07-20T07:23:31;16.30;99.90
49765;DHT22;35657;51.204;-4.130;2023-07-20T07:25:57;16.30;99.90
49765;DHT22;35657;51.204;-4.130;2023-07-20T07:28:22;16.40;99.90
49765;DHT22;35657;51.204;-4.130;2023-07-20T07:30:48;16.40;99.90
49765;DHT22;35657;51.204;-4.130;2023-07-20T07:33:14;16.40;99.90
49765;DHT22;35657;51.204;-4.130;2023-07-20T07:35:39;16.40;99.90
49765;DHT22;35657;51.204;-4.130;2023-07-20T07:38:05;16.50;99.90
49765;DHT22;35657;51.204;-4.130;2023-07-20T07:40:32;16.50;99.90
49765;DHT22;35657;51.204;-4.130;2023-07-20T07:42:58;16.80;99.90
49765;DHT22;35657;51.204;-4.130;2023-07-20T07:45:24;16.70;99.90
49765;DHT22;35657;51.204;-4.130;2023-07-20T07:47:50;16.90;99.90
49765;DHT22;35657;51.204;-4.130;2023-07-20T07:50:15;17.20;99.90
49765;DHT22;35657;51.204;-4.130;2023-07-20T07:52:41;17.40;99.90
49765;DHT22;35657;51.204;-4.130;2023-07-20T07:55:07;17.40;99.90
49765;DHT22;35657;51.204;-4.130;2023-07-20T07:57:33;17.60;99.90
49765;DHT22;35657;51.204;-4.130;2023-07-20T07:59:58;17.60;99.90
49765;DHT22;35657;51.204;-4.130;2023-07-20T08:02:24;17.90;99.90
49765;DHT22;35657;51.204;-4.130;2023-07-20T08:04:49;18.00;99.90
49765;DHT22;35657;51.204;-4.130;2023-07-20T08:07:17;18.10;99.90
49765;DHT22;35657;51.204;-4.130;2023-07-20T08:09:43;18.30;99.90
49765;DHT22;35657;51.204;-4.130;2023-07-20T08:12:09;18.40;99.90
49765;DHT22;35657;51.204;-4.130;2023-07-20T08:14:34;18.60;99.90
49765;DHT22;35657;51.204;-4.130;2023-07-20T08:17:00;18.70;99.90
49765;DHT22;35657;51.204;-4.130;2023-07-20T08:19:26;18.80;99.90
49765;DHT22;35657;51.204;-4.130;2023-07-20T08:21:51;19.10;99.90
49765;DHT22;35657;51.204;-4.130;2023-07-20T08:24:17;19.10;99.90
49765;DHT22;35657;51.204;-4.130;2023-07-20T08:26:43;19.30;99.90
49765;DHT22;35657;51.204;-4.130;2023-07-20T08:29:09;19.40;99.90
49765;DHT22;35657;51.204;-4.130;2023-07-20T08:31:34;19.70;99.90
49765;DHT22;35657;51.204;-4.130;2023-07-20T08:34:00;19.60;99.90
49765;DHT22;35657;51.204;-4.130;2023-07-20T08:36:26;19.60;99.90
49765;DHT22;35657;51.204;-4.130;2023-07-20T08:38:52;19.60;99.90
49765;DHT22;35657;51.204;-4.130;2023-07-20T08:41:18;19.80;99.90
49765;DHT22;35657;51.204;-4.130;2023-07-20T08:43:46;19.80;99.90
49765;DHT22;35657;51.204;-4.130;2023-07-20T08:46:13;19.80;99.90
49765;DHT22;35657;51.204;-4.130;2023-07-20T08:48:41;19.70;99.90
49765;DHT22;35657;51.204;-4.130;2023-07-20T08:51:07;19.90;99.90
49765;DHT22;35657;51.204;-4.130;2023-07-20T08:53:34;20.10;99.90
49765;DHT22;35657;51.204;-4.130;2023-07-20T08:55:59;20.20;99.90
49765;DHT22;35657;51.204;-4.130;2023-07-20T08:58:27;20.10;99.90
49765;DHT22;35657;51.204;-4.130;2023-07-20T09:00:54;20.30;99.90
49765;DHT22;35657;51.204;-4.130;2023-07-20T09:03:21;20.10;99.90
49765;DHT22;35657;51.204;-4.130;2023-07-20T09:05:47;19.80;99.90
49765;DHT22;35657;51.204;-4.130;2023-07-20T09:08:12;19.50;99.90
49765;DHT22;35657;51.204;-4.130;2023-07-20T09:10:38;19.60;99.90
49765;DHT22;35657;51.204;-4.130;2023-07-20T09:13:04;19.70;99.90
49765;DHT22;35657;51.204;-4.130;2023-07-20T09:15:29;19.60;99.90
49765;DHT22;35657;51.204;-4.130;2023-07-20T09:17:55;19.80;99.90
49765;DHT22;35657;51.204;-4.130;2023-07-20T09:20:21;19.80;99.90
49765;DHT22;35657;51.204;-4.130;2023-07-20T09:22:47;20.00;99.90
49765;DHT22;35657;51.204;-4.130;2023-07-20T09:25:17;20.20;99.90
49765;DHT22;35657;51.204;-4.130;2023-07-20T09:27:44;20.30;99.90
49765;DHT22;35657;51.204;-4.130;2023-07-20T09:30:11;20.30;99.90
49765;DHT22;35657;51.204;-4.130;2023-07-20T09:35:10;20.70;99.90
49765;DHT22;35657;51.204;-4.130;2023-07-20T09:37:38;20.40;99.90
49765;DHT22;35657;51.204;-4.130;2023-07-20T09:40:06;20.40;99.90
49765;DHT22;35657;51.204;-4.130;2023-07-20T09:42:35;20.90;99.90
49765;DHT22;35657;51.204;-4.130;2023-07-20T09:45:02;21.10;99.90
49765;DHT22;35657;51.204;-4.130;2023-07-20T09:47:28;21.10;99.90
49765;DHT22;35657;51.204;-4.130;2023-07-20T09:50:00;21.00;99.90
49765;DHT22;35657;51.204;-4.130;2023-07-20T09:52:26;21.20;99.90
49765;DHT22;35657;51.204;-4.130;2023-07-20T09:54:52;21.20;99.90
49765;DHT22;35657;51.204;-4.130;2023-07-20T09:57:21;20.90;99.90
49765;DHT22;35657;51.204;-4.130;2023-07-20T09:59:47;21.00;99.90
49765;DHT22;35657;51.204;-4.130;2023-07-20T10:02:25;21.30;99.90
49765;DHT22;35657;51.204;-4.130;2023-07-20T10:04:53;21.50;99.90
49765;DHT22;35657;51.204;-4.130;2023-07-20T10:07:22;21.20;99.90
49765;DHT22;35657;51.204;-4.130;2023-07-20T10:09:48;21.40;99.90
49765;DHT22;35657;51.204;-4.130;2023-07-20T10:12:18;21.80;99.90
49765;DHT22;35657;51.204;-4.130;2023-07-20T10:20:32;21.80;99.90
49765;DHT22;35657;51.204;-4.130;2023-07-20T10:22:59;21.70;99.90
49765;DHT22;35657;51.204;-4.130;2023-07-20T10:25:26;21.90;99.90
49765;DHT22;35657;51.204;-4.130;2023-07-20T10:27:53;22.20;99.90
49765;DHT22;35657;51.204;-4.130;2023-07-20T10:30:20;22.50;99.90
49765;DHT22;35657;51.204;-4.130;2023-07-20T10:32:46;22.40;99.90
49765;DHT22;35657;51.204;-4.130;2023-07-20T10:35:16;22.60;99.90
49765;DHT22;35657;51.204;-4.130;2023-07-20T10:40:37;22.50;99.90
49765;DHT22;35657;51.204;-4.130;2023-07-20T10:43:08;23.00;99.90
49765;DHT22;35657;51.204;-4.130;2023-07-20T10:48:04;23.40;99.90
49765;DHT22;35657;51.204;-4.130;2023-07-20T10:50:30;23.30;99.90
49765;DHT22;35657;51.204;-4.130;2023-07-20T10:53:11;23.40;99.90
49765;DHT22;35657;51.204;-4.130;2023-07-20T10:55:38;24.00;99.90
49765;DHT22;35657;51.204;-4.130;2023-07-20T10:58:11;23.90;99.90
49765;DHT22;35657;51.204;-4.130;2023-07-20T11:00:38;23.60;99.90
49765;DHT22;35657;51.204;-4.130;2023-07-20T11:03:09;24.10;99.90
49765;DHT22;35657;51.204;-4.130;2023-07-20T11:05:39;24.40;99.90
49765;DHT22;35657;51.204;-4.130;2023-07-20T11:08:10;24.60;99.90
49765;DHT22;35657;51.204;-4.130;2023-07-20T11:10:36;24.60;99.90
49765;DHT22;35657;51.204;-4.130;2023-07-20T11:13:21;24.40;99.90
49765;DHT22;35657;51.204;-4.130;2023-07-20T11:16:08;24.80;99.90
49765;DHT22;35657;51.204;-4.130;2023-07-20T11:18:34;25.10;99.90
49765;DHT22;35657;51.204;-4.130;2023-07-20T11:21:07;25.30;99.90
49765;DHT22;35657;51.204;-4.130;2023-07-20T11:23:38;25.40;99.90
49765;DHT22;35657;51.204;-4.130;2023-07-20T11:26:03;25.60;99.90
49765;DHT22;35657;51.204;-4.130;2023-07-20T11:28:30;25.80;99.90
49765;DHT22;35657;51.204;-4.130;2023-07-20T11:30:56;25.70;99.90
49765;DHT22;35657;51.204;-4.130;2023-07-20T11:33:21;26.00;99.90
49765;DHT22;35657;51.204;-4.130;2023-07-20T11:35:49;26.20;99.90
49765;DHT22;35657;51.204;-4.130;2023-07-20T11:38:16;26.30;99.90
49765;DHT22;35657;51.204;-4.130;2023-07-20T11:40:45;26.30;99.90
49765;DHT22;35657;51.204;-4.130;2023-07-20T11:43:13;26.30;99.90
49765;DHT22;35657;51.204;-4.130;2023-07-20T11:45:39;26.40;99.90
49765;DHT22;35657;51.204;-4.130;2023-07-20T11:48:05;26.70;99.90
49765;DHT22;35657;51.204;-4.130;2023-07-20T11:50:31;26.80;99.90
49765;DHT22;35657;51.204;-4.130;2023-07-20T11:52:57;26.40;99.90
49765;DHT22;35657;51.204;-4.130;2023-07-20T11:55:23;26.50;99.90
49765;DHT22;35657;51.204;-4.130;2023-07-20T11:58:05;26.30;99.90
49765;DHT22;35657;51.204;-4.130;2023-07-20T12:00:32;25.70;99.90
49765;DHT22;35657;51.204;-4.130;2023-07-20T12:02:58;26.10;99.90
49765;DHT22;35657;51.204;-4.130;2023-07-20T12:05:24;25.90;99.90
49765;DHT22;35657;51.204;-4.130;2023-07-20T12:07:51;26.30;99.90
49765;DHT22;35657;51.204;-4.130;2023-07-20T12:10:24;26.20;99.90
49765;DHT22;35657;51.204;-4.130;2023-07-20T12:12:51;25.90;99.90
49765;DHT22;35657;51.204;-4.130;2023-07-20T12:15:21;25.90;99.90
49765;DHT22;35657;51.204;-4.130;2023-07-20T12:17:50;26.50;99.90
49765;DHT22;35657;51.204;-4.130;2023-07-20T12:20:36;26.40;99.90
49765;DHT22;35657;51.204;-4.130;2023-07-20T12:23:08;25.40;99.90
49765;DHT22;35657;51.204;-4.130;2023-07-20T12:25:45;25.40;99.90
49765;DHT22;35657;51.204;-4.130;2023-07-20T12:28:17;25.90;99.90
49765;DHT22;35657;51.204;-4.130;2023-07-20T12:30:44;26.00;99.90
49765;DHT22;35657;51.204;-4.130;2023-07-20T12:33:10;24.90;99.90
49765;DHT22;35657;51.204;-4.130;2023-07-20T12:35:37;24.50;99.90
49765;DHT22;35657;51.204;-4.130;2023-07-20T12:38:03;24.70;99.90
49765;DHT22;35657;51.204;-4.130;2023-07-20T12:40:29;24.60;99.90
49765;DHT22;35657;51.204;-4.130;2023-07-20T12:42:55;24.00;99.90
49765;DHT22;35657;51.204;-4.130;2023-07-20T12:45:21;24.00;99.90
49765;DHT22;35657;51.204;-4.130;2023-07-20T12:47:47;24.30;99.90
49765;DHT22;35657;51.204;-4.130;2023-07-20T12:50:13;23.90;99.90
49765;DHT22;35657;51.204;-4.130;2023-07-20T12:52:40;24.10;99.90
49765;DHT22;35657;51.204;-4.130;2023-07-20T12:55:07;24.60;99.90
49765;DHT22;35657;51.204;-4.130;2023-07-20T12:57:37;24.40;99.90
49765;DHT22;35657;51.204;-4.130;2023-07-20T13:00:04;24.20;99.90
49765;DHT22;35657;51.204;-4.130;2023-07-20T13:02:32;24.50;99.90
49765;DHT22;35657;51.204;-4.130;2023-07-20T13:04:58;24.50;99.90
49765;DHT22;35657;51.204;-4.130;2023-07-20T13:07:37;24.20;99.90
49765;DHT22;35657;51.204;-4.130;2023-07-20T13:10:04;24.40;99.90
49765;DHT22;35657;51.204;-4.130;2023-07-20T13:12:32;24.40;99.90
49765;DHT22;35657;51.204;-4.130;2023-07-20T13:14:58;23.90;99.90
49765;DHT22;35657;51.204;-4.130;2023-07-20T13:17:28;24.00;99.90
49765;DHT22;35657;51.204;-4.130;2023-07-20T13:19:55;23.90;99.90
49765;DHT22;35657;51.204;-4.130;2023-07-20T13:22:21;24.00;99.90
49765;DHT22;35657;51.204;-4.130;2023-07-20T13:24:47;24.20;99.90
49765;DHT22;35657;51.204;-4.130;2023-07-20T13:27:16;24.40;99.90
49765;DHT22;35657;51.204;-4.130;2023-07-20T13:29:42;24.10;99.90
49765;DHT22;35657;51.204;-4.130;2023-07-20T13:32:09;23.40;99.90
49765;DHT22;35657;51.204;-4.130;2023-07-20T13:34:35;23.70;99.90
49765;DHT22;35657;51.204;-4.130;2023-07-20T13:37:01;23.90;99.90
49765;DHT22;35657;51.204;-4.130;2023-07-20T13:39:27;23.60;99.90
49765;DHT22;35657;51.204;-4.130;2023-07-20T13:41:54;23.40;99.90
49765;DHT22;35657;51.204;-4.130;2023-07-20T13:44:20;23.50;99.90
49765;DHT22;35657;51.204;-4.130;2023-07-20T13:46:47;23.80;99.90
49765;DHT22;35657;51.204;-4.130;2023-07-20T13:49:13;23.20;99.90
49765;DHT22;35657;51.204;-4.130;2023-07-20T13:51:39;23.50;99.90
49765;DHT22;35657;51.204;-4.130;2023-07-20T13:54:06;23.40;99.90
49765;DHT22;35657;51.204;-4.130;2023-07-20T13:56:31;23.20;99.90
49765;DHT22;35657;51.204;-4.130;2023-07-20T13:58:57;23.40;99.90
49765;DHT22;35657;51.204;-4.130;2023-07-20T14:01:23;23.50;99.90
49765;DHT22;35657;51.204;-4.130;2023-07-20T14:03:50;23.40;99.90
49765;DHT22;35657;51.204;-4.130;2023-07-20T14:06:17;23.60;99.90
49765;DHT22;35657;51.204;-4.130;2023-07-20T14:08:43;23.70;99.90
49765;DHT22;35657;51.204;-4.130;2023-07-20T14:11:12;23.50;99.90
49765;DHT22;35657;51.204;-4.130;2023-07-20T14:13:38;23.30;99.90
49765;DHT22;35657;51.204;-4.130;2023-07-20T14:16:04;23.30;99.90
49765;DHT22;35657;51.204;-4.130;2023-07-20T14:18:30;23.80;99.90
49765;DHT22;35657;51.204;-4.130;2023-07-20T14:20:56;23.40;99.90
49765;DHT22;35657;51.204;-4.130;2023-07-20T14:23:22;23.60;99.90
49765;DHT22;35657;51.204;-4.130;2023-07-20T14:25:48;23.50;99.90
49765;DHT22;35657;51.204;-4.130;2023-07-20T14:28:14;23.20;99.90
49765;DHT22;35657;51.204;-4.130;2023-07-20T14:30:41;23.40;99.90
49765;DHT22;35657;51.204;-4.130;2023-07-20T14:33:07;23.40;99.90
49765;DHT22;35657;51.204;-4.130;2023-07-20T14:35:33;23.50;99.90
49765;DHT22;35657;51.204;-4.130;2023-07-20T14:38:00;23.10;99.90
49765;DHT22;35657;51.204;-4.130;2023-07-20T14:40:26;22.80;99.90
49765;DHT22;35657;51.204;-4.130;2023-07-20T14:42:52;23.30;99.90
49765;DHT22;35657;51.204;-4.130;2023-07-20T14:45:18;23.50;99.90
49765;DHT22;35657;51.204;-4.130;2023-07-20T14:47:44;23.50;99.90
49765;DHT22;35657;51.204;-4.130;2023-07-20T14:50:11;23.40;99.90
49765;DHT22;35657;51.204;-4.130;2023-07-20T14:52:37;23.50;99.90
49765;DHT22;35657;51.204;-4.130;2023-07-20T14:55:03;23.40;99.90
49765;DHT22;35657;51.204;-4.130;2023-07-20T14:57:29;23.40;99.90
49765;DHT22;35657;51.204;-4.130;2023-07-20T14:59:55;23.50;99.90
49765;DHT22;35657;51.204;-4.130;2023-07-20T15:02:21;23.70;99.90
49765;DHT22;35657;51.204;-4.130;2023-07-20T15:04:47;23.20;99.90
49765;DHT22;35657;51.204;-4.130;2023-07-20T15:07:15;23.20;99.90
49765;DHT22;35657;51.204;-4.130;2023-07-20T15:09:41;22.90;99.90
49765;DHT22;35657;51.204;-4.130;2023-07-20T15:12:07;22.80;99.90
49765;DHT22;35657;51.204;-4.130;2023-07-20T15:14:34;23.10;99.90
49765;DHT22;35657;51.204;-4.130;2023-07-20T15:17:00;22.90;99.90
49765;DHT22;35657;51.204;-4.130;2023-07-20T15:19:26;22.90;99.90
49765;DHT22;35657;51.204;-4.130;2023-07-20T15:21:51;22.50;99.90
49765;DHT22;35657;51.204;-4.130;2023-07-20T15:24:17;22.50;99.90
49765;DHT22;35657;51.204;-4.130;2023-07-20T15:26:43;22.20;99.90
49765;DHT22;35657;51.204;-4.130;2023-07-20T15:29:08;22.50;99.90
49765;DHT22;35657;51.204;-4.130;2023-07-20T15:31:34;22.20;99.90
49765;DHT22;35657;51.204;-4.130;2023-07-20T15:34:01;22.50;99.90
49765;DHT22;35657;51.204;-4.130;2023-07-20T15:36:27;22.80;99.90
49765;DHT22;35657;51.204;-4.130;2023-07-20T15:38:53;22.80;99.90